Time,TemperatureF,DewpointF,PressureIn,WindDirection,WindDirectionDegrees,WindSpeedMPH,WindSpeedGustMPH,Humidity,HourlyPrecipIn,Conditions,Clouds,dailyrainin,SoftwareType,DateUTC
2013-01-29 00:03:00,45.1,28.5,30.25,NNW,341,2.2,4.0,52,0.00,,,0.00,WUHU216WMR968SP,2013-01-29 08:03:00,
2013-01-29 00:08:00,45.3,30.1,30.25,NNE,19,3.6,4.0,55,0.00,,,0.00,WUHU216WMR968SP,2013-01-29 08:08:00,
2013-01-29 00:13:00,45.5,30.3,30.25,North,10,2.2,5.8,55,0.00,,,0.00,WUHU216WMR968SP,2013-01-29 08:13:00,
2013-01-29 00:18:00,45.5,30.3,30.25,North,11,2.2,5.8,55,0.00,,,0.00,WUHU216WMR968SP,2013-01-29 08:18:00,
2013-01-29 00:23:00,45.5,31.2,30.28,North,11,0.0,3.1,57,0.00,,,0.00,WUHU216WMR968SP,2013-01-29 08:23:00,
2013-01-29 00:28:00,45.5,31.2,30.28,North,11,0.0,3.1,57,0.00,,,0.00,WUHU216WMR968SP,2013-01-29 08:28:00,
2013-01-29 00:33:00,45.3,31.0,30.28,North,353,0.0,2.7,57,0.00,,,0.00,WUHU216WMR968SP,2013-01-29 08:33:00,
2013-01-29 00:38:00,45.1,30.8,30.28,North,353,0.0,2.7,57,0.00,,,0.00,WUHU216WMR968SP,2013-01-29 08:38:00,
2013-01-29 00:43:00,45.0,31.2,30.28,NNE,30,2.7,3.1,58,0.00,,,0.00,WUHU216WMR968SP,2013-01-29 08:43:00,
2013-01-29 00:48:00,45.1,31.3,30.28,NNE,14,0.0,3.1,58,0.00,,,0.00,WUHU216WMR968SP,2013-01-29 08:48:00,
2013-01-29 00:53:00,45.1,31.3,30.28,NNE,22,2.7,3.1,58,0.00,,,0.00,WUHU216WMR968SP,2013-01-29 08:53:00,
2013-01-29 00:58:00,45.0,31.2,30.28,North,6,0.0,3.6,58,0.00,,,0.00,WUHU216WMR968SP,2013-01-29 08:58:00,
2013-01-29 01:03:00,45.0,31.2,30.28,NNE,20,0.0,3.6,58,0.00,,,0.00,WUHU216WMR968SP,2013-01-29 09:03:00,
2013-01-29 01:08:00,45.0,31.2,30.25,NNE,21,0.0,3.6,58,0.00,,,0.00,WUHU216WMR968SP,2013-01-29 09:08:00,
2013-01-29 01:13:00,44.6,30.8,30.25,NNE,21,0.0,0.0,58,0.00,,,0.00,WUHU216WMR968SP,2013-01-29 09:13:00,
2013-01-29 01:18:00,44.4,31.0,30.25,North,357,0.0,0.0,59,0.00,,,0.00,WUHU216WMR968SP,2013-01-29 09:18:00,
2013-01-29 01:23:00,44.1,30.7,30.28,NNW,340,0.0,3.1,59,0.00,,,0.00,WUHU216WMR968SP,2013-01-29 09:23:00,
2013-01-29 01:28:00,44.1,30.7,30.28,NNW,340,0.0,3.1,59,0.00,,,0.00,WUHU216WMR968SP,2013-01-29 09:28:00,
2013-01-29 01:33:00,44.1,30.3,30.28,NNW,340,0.0,0.0,58,0.00,,,0.00,WUHU216WMR968SP,2013-01-29 09:33:00,
2013-01-29 01:38:00,43.7,30.4,30.28,NNW,340,0.0,0.0,59,0.00,,,0.00,WUHU216WMR968SP,2013-01-29 09:38:00,
2013-01-29 01:43:00,43.5,30.2,30.28,NNW,340,0.0,0.0,59,0.00,,,0.00,WUHU216WMR968SP,2013-01-29 09:43:00,
2013-01-29 01:48:00,43.5,30.2,30.28,NNW,340,0.0,0.0,59,0.00,,,0.00,WUHU216WMR968SP,2013-01-29 09:48:00,
2013-01-29 01:53:00,43.5,30.2,30.28,NNW,340,0.0,0.0,59,0.00,,,0.00,WUHU216WMR968SP,2013-01-29 09:53:00,
2013-01-29 01:58:00,43.3,30.0,30.28,NNW,340,0.0,0.0,59,0.00,,,0.00,WUHU216WMR968SP,2013-01-29 09:58:00,
2013-01-29 02:03:00,43.0,29.7,30.28,West,262,3.1,3.6,59,0.00,,,0.00,WUHU216WMR968SP,2013-01-29 10:03:00,
2013-01-29 02:08:00,42.8,29.5,30.28,North,353,0.0,3.6,59,0.00,,,0.00,WUHU216WMR968SP,2013-01-29 10:08:00,
2013-01-29 02:13:00,42.4,29.1,30.28,NNW,345,0.0,3.1,59,0.00,,,0.00,WUHU216WMR968SP,2013-01-29 10:13:00,
2013-01-29 02:18:00,42.3,29.5,30.28,NNW,345,0.0,0.0,60,0.00,,,0.00,WUHU216WMR968SP,2013-01-29 10:18:00,
2013-01-29 02:23:00,42.3,29.5,30.28,East,101,0.0,0.0,60,0.00,,,0.00,WUHU216WMR968SP,2013-01-29 10:23:00,
2013-01-29 02:28:00,42.1,29.3,30.28,ESE,111,0.0,0.0,60,0.00,,,0.00,WUHU216WMR968SP,2013-01-29 10:28:00,
2013-01-29 02:33:00,41.9,29.1,30.28,ESE,112,0.0,0.0,60,0.00,,,0.00,WUHU216WMR968SP,2013-01-29 10:33:00,
2013-01-29 02:38:00,41.5,28.7,30.28,ESE,111,0.0,0.0,60,0.00,,,0.00,WUHU216WMR968SP,2013-01-29 10:38:00,
2013-01-29 02:43:00,41.5,28.7,30.28,ENE,78,0.0,0.0,60,0.00,,,0.00,WUHU216WMR968SP,2013-01-29 10:43:00,
2013-01-29 02:48:00,41.5,29.1,30.28,ENE,78,0.0,0.0,61,0.00,,,0.00,WUHU216WMR968SP,2013-01-29 10:48:00,
2013-01-29 02:53:00,41.5,29.1,30.28,NNE,31,0.0,0.0,61,0.00,,,0.00,WUHU216WMR968SP,2013-01-29 10:53:00,
2013-01-29 02:58:00,41.2,28.8,30.28,North,1,0.0,0.0,61,0.00,,,0.00,WUHU216WMR968SP,2013-01-29 10:58:00,
2013-01-29 03:03:00,41.2,28.8,30.28,North,1,0.0,0.0,61,0.00,,,0.00,WUHU216WMR968SP,2013-01-29 11:03:00,
2013-01-29 03:08:00,41.2,28.8,30.28,North,1,0.0,0.0,61,0.00,,,0.00,WUHU216WMR968SP,2013-01-29 11:08:00,
2013-01-29 03:13:00,41.5,29.1,30.28,North,1,0.0,0.0,61,0.00,,,0.00,WUHU216WMR968SP,2013-01-29 11:13:00,
2013-01-29 03:18:00,42.1,29.3,30.28,North,353,0.0,3.6,60,0.00,,,0.00,WUHU216WMR968SP,2013-01-29 11:18:00,
2013-01-29 03:23:00,42.4,29.6,30.28,North,353,0.0,3.6,60,0.00,,,0.00,WUHU216WMR968SP,2013-01-29 11:23:00,
2013-01-29 03:28:00,42.8,29.5,30.28,North,353,0.0,2.7,59,0.00,,,0.00,WUHU216WMR968SP,2013-01-29 11:28:00,
2013-01-29 03:33:00,43.0,29.7,30.28,North,357,0.0,0.0,59,0.00,,,0.00,WUHU216WMR968SP,2013-01-29 11:33:00,
2013-01-29 03:38:00,43.2,29.9,30.28,North,6,2.2,3.1,59,0.00,,,0.00,WUHU216WMR968SP,2013-01-29 11:38:00,
2013-01-29 03:43:00,43.3,30.0,30.28,North,6,0.0,3.1,59,0.00,,,0.00,WUHU216WMR968SP,2013-01-29 11:43:00,
2013-01-29 03:48:00,43.5,30.2,30.28,North,6,0.0,2.7,59,0.00,,,0.00,WUHU216WMR968SP,2013-01-29 11:48:00,
2013-01-29 03:53:00,43.5,30.2,30.28,North,6,0.0,2.7,59,0.00,,,0.00,WUHU216WMR968SP,2013-01-29 11:53:00,
2013-01-29 03:58:00,43.3,30.0,30.28,North,6,0.0,2.7,59,0.00,,,0.00,WUHU216WMR968SP,2013-01-29 11:58:00,
2013-01-29 04:03:00,43.3,30.0,30.28,North,6,0.0,0.0,59,0.00,,,0.00,WUHU216WMR968SP,2013-01-29 12:03:00,
2013-01-29 04:08:00,43.5,30.2,30.31,NNW,337,0.0,2.7,59,0.00,,,0.00,WUHU216WMR968SP,2013-01-29 12:08:00,
2013-01-29 04:13:00,43.0,29.7,30.31,NNW,332,0.0,3.1,59,0.00,,,0.00,WUHU216WMR968SP,2013-01-29 12:13:00,
2013-01-29 04:18:00,43.2,29.9,30.31,NNW,332,0.0,3.1,59,0.00,,,0.00,WUHU216WMR968SP,2013-01-29 12:18:00,
2013-01-29 04:23:00,43.2,29.9,30.31,NNW,332,0.0,0.0,59,0.00,,,0.00,WUHU216WMR968SP,2013-01-29 12:23:00,
2013-01-29 04:28:00,43.2,29.9,30.31,NNW,332,0.0,0.0,59,0.00,,,0.00,WUHU216WMR968SP,2013-01-29 12:28:00,
2013-01-29 04:33:00,43.2,29.9,30.31,North,357,0.0,2.7,59,0.00,,,0.00,WUHU216WMR968SP,2013-01-29 12:33:00,
2013-01-29 04:38:00,43.3,30.0,30.28,North,357,0.0,2.7,59,0.00,,,0.00,WUHU216WMR968SP,2013-01-29 12:38:00,
2013-01-29 04:43:00,43.3,30.0,30.28,North,357,0.0,2.2,59,0.00,,,0.00,WUHU216WMR968SP,2013-01-29 12:43:00,
2013-01-29 04:48:00,43.5,30.2,30.28,North,357,0.0,2.7,59,0.00,,,0.00,WUHU216WMR968SP,2013-01-29 12:48:00,
2013-01-29 04:53:00,43.0,29.7,30.28,North,357,0.0,2.7,59,0.00,,,0.00,WUHU216WMR968SP,2013-01-29 12:53:00,
2013-01-29 04:58:00,43.0,29.7,30.28,North,353,0.0,0.0,59,0.00,,,0.00,WUHU216WMR968SP,2013-01-29 12:58:00,
2013-01-29 05:03:00,42.8,29.5,30.28,North,357,0.0,0.0,59,0.00,,,0.00,WUHU216WMR968SP,2013-01-29 13:03:00,
2013-01-29 05:08:00,43.0,29.7,30.31,North,357,0.0,0.0,59,0.00,,,0.00,WUHU216WMR968SP,2013-01-29 13:08:00,
2013-01-29 05:13:00,43.3,30.0,30.31,North,357,0.0,0.0,59,0.00,,,0.00,WUHU216WMR968SP,2013-01-29 13:13:00,
2013-01-29 05:18:00,43.3,30.0,30.31,NNE,21,3.6,4.9,59,0.00,,,0.00,WUHU216WMR968SP,2013-01-29 13:18:00,
2013-01-29 05:23:00,43.3,30.0,30.31,North,9,0.0,4.9,59,0.00,,,0.00,WUHU216WMR968SP,2013-01-29 13:23:00,
2013-01-29 05:28:00,43.3,30.0,30.31,North,9,0.0,3.6,59,0.00,,,0.00,WUHU216WMR968SP,2013-01-29 13:28:00,
2013-01-29 05:33:00,43.2,29.9,30.31,North,9,0.0,3.1,59,0.00,,,0.00,WUHU216WMR968SP,2013-01-29 13:33:00,
2013-01-29 05:38:00,43.2,29.9,30.31,North,9,0.0,3.1,59,0.00,,,0.00,WUHU216WMR968SP,2013-01-29 13:38:00,
2013-01-29 05:43:00,43.2,29.9,30.31,North,9,0.0,3.1,59,0.00,,,0.00,WUHU216WMR968SP,2013-01-29 13:43:00,
2013-01-29 05:48:00,43.3,30.0,30.31,NNE,16,0.0,4.0,59,0.00,,,0.00,WUHU216WMR968SP,2013-01-29 13:48:00,
2013-01-29 05:53:00,43.3,30.0,30.28,NNE,20,0.0,5.4,59,0.00,,,0.00,WUHU216WMR968SP,2013-01-29 13:53:00,
2013-01-29 05:58:00,43.5,30.2,30.28,NNE,20,0.0,5.4,59,0.00,,,0.00,WUHU216WMR968SP,2013-01-29 13:58:00,
2013-01-29 06:03:00,43.3,30.0,30.28,NNE,20,0.0,0.0,59,0.00,,,0.00,WUHU216WMR968SP,2013-01-29 14:03:00,
2013-01-29 06:08:00,43.0,29.7,30.28,NW,322,0.0,3.1,59,0.00,,,0.00,WUHU216WMR968SP,2013-01-29 14:08:00,
2013-01-29 06:13:00,42.8,29.5,30.28,NNE,18,0.0,3.6,59,0.00,,,0.00,WUHU216WMR968SP,2013-01-29 14:13:00,
2013-01-29 06:18:00,42.8,29.5,30.28,NNE,24,0.0,3.6,59,0.00,,,0.00,WUHU216WMR968SP,2013-01-29 14:18:00,
2013-01-29 06:23:00,43.0,29.7,30.28,NNE,24,0.0,0.0,59,0.00,,,0.00,WUHU216WMR968SP,2013-01-29 14:23:00,
2013-01-29 06:28:00,43.0,29.7,30.28,NNE,23,0.0,0.0,59,0.00,,,0.00,WUHU216WMR968SP,2013-01-29 14:28:00,
2013-01-29 06:33:00,43.0,29.7,30.28,North,8,0.0,0.0,59,0.00,,,0.00,WUHU216WMR968SP,2013-01-29 14:33:00,
2013-01-29 06:38:00,42.6,29.3,30.25,North,8,0.0,0.0,59,0.00,,,0.00,WUHU216WMR968SP,2013-01-29 14:38:00,
2013-01-29 06:43:00,42.4,29.6,30.25,North,8,0.0,0.0,60,0.00,,,0.00,WUHU216WMR968SP,2013-01-29 14:43:00,
2013-01-29 06:48:00,42.4,29.6,30.25,North,8,0.0,0.0,60,0.00,,,0.00,WUHU216WMR968SP,2013-01-29 14:48:00,
2013-01-29 06:53:00,42.6,29.8,30.25,North,8,0.0,0.0,60,0.00,,,0.00,WUHU216WMR968SP,2013-01-29 14:53:00,
2013-01-29 06:58:00,42.3,29.5,30.25,North,357,0.0,0.0,60,0.00,,,0.00,WUHU216WMR968SP,2013-01-29 14:58:00,
2013-01-29 07:03:00,42.4,29.6,30.25,North,357,0.0,0.0,60,0.00,,,0.00,WUHU216WMR968SP,2013-01-29 15:03:00,
2013-01-29 07:08:00,42.8,29.9,30.25,NNE,17,0.0,0.0,60,0.00,,,0.00,WUHU216WMR968SP,2013-01-29 15:08:00,
2013-01-29 07:13:00,43.2,30.3,30.25,North,10,0.0,0.0,60,0.00,,,0.00,WUHU216WMR968SP,2013-01-29 15:13:00,
2013-01-29 07:18:00,43.5,30.6,30.25,North,10,0.0,0.0,60,0.00,,,0.00,WUHU216WMR968SP,2013-01-29 15:18:00,
2013-01-29 07:23:00,44.2,31.3,30.25,North,10,0.0,0.0,60,0.00,,,0.00,WUHU216WMR968SP,2013-01-29 15:23:00,
2013-01-29 07:28:00,44.8,31.4,30.25,North,10,0.0,0.0,59,0.00,,,0.00,WUHU216WMR968SP,2013-01-29 15:28:00,
2013-01-29 07:33:00,45.7,32.3,30.25,North,10,0.0,0.0,59,0.00,,,0.00,WUHU216WMR968SP,2013-01-29 15:33:00,
2013-01-29 07:38:00,46.6,32.7,30.28,North,10,0.0,0.0,58,0.00,,,0.00,WUHU216WMR968SP,2013-01-29 15:38:00,
2013-01-29 07:43:00,46.9,33.0,30.28,North,10,0.0,0.0,58,0.00,,,0.00,WUHU216WMR968SP,2013-01-29 15:43:00,
2013-01-29 07:48:00,47.1,33.1,30.28,NNE,22,2.2,3.6,58,0.00,,,0.00,WUHU216WMR968SP,2013-01-29 15:48:00,
2013-01-29 07:53:00,47.3,33.3,30.28,NNE,22,0.0,3.6,58,0.00,,,0.00,WUHU216WMR968SP,2013-01-29 15:53:00,
2013-01-29 07:59:00,47.3,33.3,30.28,NNE,22,0.0,2.7,58,0.00,,,0.00,WUHU216WMR968SP,2013-01-29 15:59:00,
2013-01-29 08:04:00,47.8,33.8,30.28,East,100,2.2,3.6,58,0.00,,,0.00,WUHU216WMR968SP,2013-01-29 16:04:00,
2013-01-29 08:09:00,48.4,33.9,30.28,ESE,103,2.7,4.0,57,0.00,,,0.00,WUHU216WMR968SP,2013-01-29 16:09:00,
2013-01-29 08:14:00,48.9,34.4,30.28,East,98,2.2,5.8,57,0.00,,,0.00,WUHU216WMR968SP,2013-01-29 16:14:00,
2013-01-29 08:19:00,49.3,34.8,30.28,ESE,123,2.7,5.8,57,0.00,,,0.00,WUHU216WMR968SP,2013-01-29 16:19:00,
2013-01-29 08:24:00,49.8,35.2,30.28,East,100,2.7,5.8,57,0.00,,,0.00,WUHU216WMR968SP,2013-01-29 16:24:00,
2013-01-29 08:29:00,50.2,35.2,30.28,ESE,106,2.2,5.4,56,0.00,,,0.00,WUHU216WMR968SP,2013-01-29 16:29:00,
2013-01-29 08:34:00,50.4,35.3,30.28,East,86,0.0,5.4,56,0.00,,,0.00,WUHU216WMR968SP,2013-01-29 16:34:00,
2013-01-29 08:39:00,50.7,35.6,30.28,ENE,77,2.2,4.5,56,0.00,,,0.00,WUHU216WMR968SP,2013-01-29 16:39:00,
2013-01-29 08:44:00,51.1,36.0,30.28,SE,140,3.6,5.8,56,0.00,,,0.00,WUHU216WMR968SP,2013-01-29 16:44:00,
2013-01-29 08:49:00,51.3,36.2,30.28,East,99,2.2,5.8,56,0.00,,,0.00,WUHU216WMR968SP,2013-01-29 16:49:00,
2013-01-29 08:54:00,51.6,36.5,30.28,SE,130,3.1,5.4,56,0.00,,,0.00,WUHU216WMR968SP,2013-01-29 16:54:00,
2013-01-29 08:59:00,52.0,36.8,30.28,East,79,2.7,5.8,56,0.00,,,0.00,WUHU216WMR968SP,2013-01-29 16:59:00,
2013-01-29 09:04:00,52.0,36.8,30.28,East,97,4.5,5.8,56,0.00,,,0.00,WUHU216WMR968SP,2013-01-29 17:04:00,
2013-01-29 09:09:00,52.2,37.0,30.28,ESE,117,2.2,5.8,56,0.00,,,0.00,WUHU216WMR968SP,2013-01-29 17:09:00,
2013-01-29 09:14:00,52.3,37.1,30.28,East,87,2.7,4.5,56,0.00,,,0.00,WUHU216WMR968SP,2013-01-29 17:14:00,
2013-01-29 09:19:00,52.3,37.1,30.28,East,80,0.0,4.0,56,0.00,,,0.00,WUHU216WMR968SP,2013-01-29 17:19:00,
2013-01-29 09:24:00,52.3,37.1,30.28,East,92,3.6,5.4,56,0.00,,,0.00,WUHU216WMR968SP,2013-01-29 17:24:00,
2013-01-29 09:29:00,52.5,37.3,30.28,ESE,102,4.0,5.8,56,0.00,,,0.00,WUHU216WMR968SP,2013-01-29 17:29:00,
2013-01-29 09:34:00,52.9,37.7,30.28,East,100,3.1,5.8,56,0.00,,,0.00,WUHU216WMR968SP,2013-01-29 17:34:00,
2013-01-29 09:39:00,53.1,37.9,30.28,ESE,123,2.7,5.8,56,0.00,,,0.00,WUHU216WMR968SP,2013-01-29 17:39:00,
2013-01-29 09:44:00,53.2,38.0,30.28,SW,234,2.2,5.4,56,0.00,,,0.00,WUHU216WMR968SP,2013-01-29 17:44:00,
2013-01-29 09:49:00,53.4,36.7,30.28,ENE,66,2.2,4.9,53,0.00,,,0.00,WUHU216WMR968SP,2013-01-29 17:49:00,
2013-01-29 09:54:00,53.6,36.9,30.28,ESE,117,2.7,4.9,53,0.00,,,0.00,WUHU216WMR968SP,2013-01-29 17:54:00,
2013-01-29 09:59:00,54.0,37.3,30.28,SSW,196,0.0,4.9,53,0.00,,,0.00,WUHU216WMR968SP,2013-01-29 17:59:00,
2013-01-29 10:04:00,54.1,37.4,30.28,SSE,159,0.0,4.0,53,0.00,,,0.00,WUHU216WMR968SP,2013-01-29 18:04:00,
2013-01-29 10:09:00,54.5,37.7,30.28,SSW,204,2.2,4.5,53,0.00,,,0.00,WUHU216WMR968SP,2013-01-29 18:09:00,
2013-01-29 10:14:00,54.7,37.9,30.28,ENE,73,3.1,4.5,53,0.00,,,0.00,WUHU216WMR968SP,2013-01-29 18:14:00,
2013-01-29 10:19:00,54.9,38.1,30.28,SE,125,2.2,5.4,53,0.00,,,0.00,WUHU216WMR968SP,2013-01-29 18:19:00,
2013-01-29 10:24:00,55.0,38.2,30.28,SE,136,3.6,5.8,53,0.00,,,0.00,WUHU216WMR968SP,2013-01-29 18:24:00,
2013-01-29 10:29:00,55.2,36.9,30.28,ESE,112,4.5,5.8,50,0.00,,,0.00,WUHU216WMR968SP,2013-01-29 18:29:00,
2013-01-29 10:34:00,55.6,37.2,30.28,ESE,115,3.6,6.3,50,0.00,,,0.00,WUHU216WMR968SP,2013-01-29 18:34:00,
2013-01-29 10:39:00,55.6,37.2,30.28,ENE,70,2.7,6.3,50,0.00,,,0.00,WUHU216WMR968SP,2013-01-29 18:39:00,
2013-01-29 10:44:00,55.6,37.2,30.28,SSE,166,2.7,5.8,50,0.00,,,0.00,WUHU216WMR968SP,2013-01-29 18:44:00,
2013-01-29 10:49:00,55.9,37.5,30.28,ESE,110,2.2,5.4,50,0.00,,,0.00,WUHU216WMR968SP,2013-01-29 18:49:00,
2013-01-29 10:54:00,56.3,37.9,30.28,East,101,0.0,5.4,50,0.00,,,0.00,WUHU216WMR968SP,2013-01-29 18:54:00,
2013-01-29 10:59:00,56.7,38.3,30.28,East,81,0.0,6.3,50,0.00,,,0.00,WUHU216WMR968SP,2013-01-29 18:59:00,
2013-01-29 11:04:00,56.8,38.4,30.28,South,177,2.2,6.3,50,0.00,,,0.00,WUHU216WMR968SP,2013-01-29 19:04:00,
2013-01-29 11:09:00,57.4,38.4,30.28,SSE,168,4.5,6.3,49,0.00,,,0.00,WUHU216WMR968SP,2013-01-29 19:09:00,
2013-01-29 11:14:00,57.7,38.6,30.28,ESE,118,2.7,6.3,49,0.00,,,0.00,WUHU216WMR968SP,2013-01-29 19:14:00,
2013-01-29 11:19:00,57.6,38.6,30.28,ESE,113,4.0,5.8,49,0.00,,,0.00,WUHU216WMR968SP,2013-01-29 19:19:00,
2013-01-29 11:24:00,57.4,38.4,30.28,East,89,3.6,5.8,49,0.00,,,0.00,WUHU216WMR968SP,2013-01-29 19:24:00,
2013-01-29 11:29:00,57.4,38.4,30.28,SE,125,3.6,5.4,49,0.00,,,0.00,WUHU216WMR968SP,2013-01-29 19:29:00,
2013-01-29 11:34:00,57.6,38.6,30.28,SE,127,2.2,5.8,49,0.00,,,0.00,WUHU216WMR968SP,2013-01-29 19:34:00,
2013-01-29 11:39:00,57.9,38.8,30.28,SSW,194,4.0,5.8,49,0.00,,,0.00,WUHU216WMR968SP,2013-01-29 19:39:00,
2013-01-29 11:44:00,58.1,39.0,30.28,SW,232,5.4,6.3,49,0.00,,,0.00,WUHU216WMR968SP,2013-01-29 19:44:00,
2013-01-29 11:49:00,58.6,39.5,30.25,South,189,3.1,6.3,49,0.00,,,0.00,WUHU216WMR968SP,2013-01-29 19:49:00,
2013-01-29 11:54:00,59.0,39.8,30.25,SSW,198,3.6,5.4,49,0.00,,,0.00,WUHU216WMR968SP,2013-01-29 19:54:00,
2013-01-29 11:59:00,59.0,39.8,30.25,SSW,197,3.1,5.4,49,0.00,,,0.00,WUHU216WMR968SP,2013-01-29 19:59:00,
2013-01-29 12:04:00,59.2,40.0,30.25,SE,146,3.1,5.4,49,0.00,,,0.00,WUHU216WMR968SP,2013-01-29 20:04:00,
2013-01-29 12:09:00,59.4,40.2,30.25,SSW,204,3.1,5.4,49,0.00,,,0.00,WUHU216WMR968SP,2013-01-29 20:09:00,
2013-01-29 12:14:00,59.4,40.2,30.25,SE,125,4.0,6.3,49,0.00,,,0.00,WUHU216WMR968SP,2013-01-29 20:14:00,
2013-01-29 12:19:00,59.5,40.3,30.22,South,186,3.1,6.3,49,0.00,,,0.00,WUHU216WMR968SP,2013-01-29 20:19:00,
2013-01-29 12:24:00,59.7,40.5,30.22,SSW,213,0.0,5.4,49,0.00,,,0.00,WUHU216WMR968SP,2013-01-29 20:24:00,
2013-01-29 12:29:00,59.5,40.3,30.22,East,99,4.9,6.7,49,0.00,,,0.00,WUHU216WMR968SP,2013-01-29 20:29:00,
2013-01-29 12:34:00,59.4,39.1,30.22,ENE,76,2.7,6.7,47,0.00,,,0.00,WUHU216WMR968SP,2013-01-29 20:34:00,
2013-01-29 12:39:00,59.4,40.2,30.22,SSW,193,2.2,4.9,49,0.00,,,0.00,WUHU216WMR968SP,2013-01-29 20:39:00,
2013-01-29 12:44:00,59.5,40.3,30.22,SW,224,4.0,5.8,49,0.00,,,0.00,WUHU216WMR968SP,2013-01-29 20:44:00,
2013-01-29 12:49:00,59.9,40.7,30.22,South,182,0.0,5.8,49,0.00,,,0.00,WUHU216WMR968SP,2013-01-29 20:49:00,
2013-01-29 12:54:00,60.1,39.8,30.22,East,89,0.0,5.8,47,0.00,,,0.00,WUHU216WMR968SP,2013-01-29 20:54:00,
2013-01-29 12:59:00,59.9,39.6,30.22,SSW,212,2.7,5.8,47,0.00,,,0.00,WUHU216WMR968SP,2013-01-29 20:59:00,
2013-01-29 13:05:00,60.3,39.9,30.19,ENE,65,2.7,6.3,47,0.00,,,0.00,WUHU216WMR968SP,2013-01-29 21:05:00,
2013-01-29 13:10:00,60.4,40.0,30.19,ESE,115,0.0,6.3,47,0.00,,,0.00,WUHU216WMR968SP,2013-01-29 21:10:00,
2013-01-29 13:15:00,60.3,39.9,30.19,SSW,195,2.7,4.0,47,0.00,,,0.00,WUHU216WMR968SP,2013-01-29 21:15:00,
2013-01-29 13:20:00,60.3,39.9,30.19,ESE,120,4.0,5.8,47,0.00,,,0.00,WUHU216WMR968SP,2013-01-29 21:20:00,
2013-01-29 13:25:00,60.4,40.0,30.19,SSW,213,3.6,5.8,47,0.00,,,0.00,WUHU216WMR968SP,2013-01-29 21:25:00,
2013-01-29 13:30:00,60.8,39.8,30.19,WSW,242,4.5,8.1,46,0.00,,,0.00,WUHU216WMR968SP,2013-01-29 21:30:00,
2013-01-29 13:35:00,60.8,39.8,30.19,SSW,210,2.7,8.1,46,0.00,,,0.00,WUHU216WMR968SP,2013-01-29 21:35:00,
2013-01-29 13:40:00,61.0,40.0,30.19,SW,222,3.1,5.8,46,0.00,,,0.00,WUHU216WMR968SP,2013-01-29 21:40:00,
2013-01-29 13:45:00,60.8,39.8,30.19,South,190,0.0,4.0,46,0.00,,,0.00,WUHU216WMR968SP,2013-01-29 21:45:00,
2013-01-29 13:50:00,60.6,40.2,30.19,NW,321,3.1,4.0,47,0.00,,,0.00,WUHU216WMR968SP,2013-01-29 21:50:00,
2013-01-29 13:55:00,60.4,40.0,30.19,WSW,248,4.5,8.1,47,0.00,,,0.00,WUHU216WMR968SP,2013-01-29 21:55:00,
2013-01-29 14:00:00,60.4,40.0,30.19,SW,236,4.5,8.1,47,0.00,,,0.00,WUHU216WMR968SP,2013-01-29 22:00:00,
2013-01-29 14:05:00,60.6,40.2,30.19,SSW,195,2.7,7.2,47,0.00,,,0.00,WUHU216WMR968SP,2013-01-29 22:05:00,
2013-01-29 14:10:00,60.8,39.8,30.19,West,268,4.0,7.6,46,0.00,,,0.00,WUHU216WMR968SP,2013-01-29 22:10:00,
2013-01-29 14:15:00,60.8,39.8,30.19,SSW,199,6.7,8.7,46,0.00,,,0.00,WUHU216WMR968SP,2013-01-29 22:15:00,
2013-01-29 14:20:00,60.6,40.2,30.19,SW,227,9.2,11.0,47,0.00,,,0.00,WUHU216WMR968SP,2013-01-29 22:20:00,
2013-01-29 14:25:00,60.4,40.0,30.19,WSW,252,4.9,11.0,47,0.00,,,0.00,WUHU216WMR968SP,2013-01-29 22:25:00,
2013-01-29 14:30:00,60.4,40.0,30.19,SSW,202,3.1,9.2,47,0.00,,,0.00,WUHU216WMR968SP,2013-01-29 22:30:00,
2013-01-29 14:35:00,60.6,40.2,30.19,ESE,104,2.7,7.6,47,0.00,,,0.00,WUHU216WMR968SP,2013-01-29 22:35:00,
2013-01-29 14:40:00,60.3,39.9,30.19,SW,227,4.0,6.3,47,0.00,,,0.00,WUHU216WMR968SP,2013-01-29 22:40:00,
2013-01-29 14:45:00,60.1,39.8,30.19,WSW,251,5.4,7.6,47,0.00,,,0.00,WUHU216WMR968SP,2013-01-29 22:45:00,
2013-01-29 14:50:00,60.1,39.8,30.19,South,173,3.6,7.6,47,0.00,,,0.00,WUHU216WMR968SP,2013-01-29 22:50:00,
2013-01-29 14:55:00,60.1,40.9,30.19,SSW,204,3.6,6.3,49,0.00,,,0.00,WUHU216WMR968SP,2013-01-29 22:55:00,
2013-01-29 15:00:00,60.1,40.9,30.19,SSW,210,4.0,6.3,49,0.00,,,0.00,WUHU216WMR968SP,2013-01-29 23:00:00,
2013-01-29 15:05:00,60.3,41.0,30.19,SSW,195,4.0,6.3,49,0.00,,,0.00,WUHU216WMR968SP,2013-01-29 23:05:00,
2013-01-29 15:10:00,60.1,40.9,30.19,SSW,212,4.0,6.3,49,0.00,,,0.00,WUHU216WMR968SP,2013-01-29 23:10:00,
2013-01-29 15:15:00,59.9,40.7,30.19,SW,234,4.5,7.6,49,0.00,,,0.00,WUHU216WMR968SP,2013-01-29 23:15:00,
2013-01-29 15:20:00,59.7,40.5,30.19,SW,222,6.3,8.7,49,0.00,,,0.00,WUHU216WMR968SP,2013-01-29 23:20:00,
2013-01-29 15:25:00,58.8,39.7,30.19,WSW,250,3.1,8.7,49,0.00,,,0.00,WUHU216WMR968SP,2013-01-29 23:25:00,
2013-01-29 15:30:00,58.8,39.7,30.19,SSW,209,3.1,8.1,49,0.00,,,0.00,WUHU216WMR968SP,2013-01-29 23:30:00,
2013-01-29 15:35:00,58.8,39.7,30.22,SW,227,3.6,5.8,49,0.00,,,0.00,WUHU216WMR968SP,2013-01-29 23:35:00,
2013-01-29 15:40:00,58.6,39.5,30.22,South,178,2.7,5.8,49,0.00,,,0.00,WUHU216WMR968SP,2013-01-29 23:40:00,
2013-01-29 15:45:00,58.6,39.5,30.22,South,183,5.4,8.3,49,0.00,,,0.00,WUHU216WMR968SP,2013-01-29 23:45:00,
2013-01-29 15:50:00,58.5,39.4,30.22,SW,226,4.9,8.3,49,0.00,,,0.00,WUHU216WMR968SP,2013-01-29 23:50:00,
2013-01-29 15:55:00,58.5,39.4,30.22,South,184,6.3,8.1,49,0.00,,,0.00,WUHU216WMR968SP,2013-01-29 23:55:00,
2013-01-29 16:00:00,58.3,39.2,30.22,SW,224,4.5,8.1,49,0.00,,,0.00,WUHU216WMR968SP,2013-01-30 00:00:00,
2013-01-29 16:05:00,58.1,39.0,30.22,SW,230,3.1,6.3,49,0.00,,,0.00,WUHU216WMR968SP,2013-01-30 00:05:00,
2013-01-29 16:10:00,58.1,39.0,30.22,South,185,2.2,4.9,49,0.00,,,0.00,WUHU216WMR968SP,2013-01-30 00:10:00,
2013-01-29 16:15:00,58.1,39.0,30.22,SW,229,0.0,4.9,49,0.00,,,0.00,WUHU216WMR968SP,2013-01-30 00:15:00,
2013-01-29 16:20:00,58.1,39.0,30.22,South,178,0.0,4.0,49,0.00,,,0.00,WUHU216WMR968SP,2013-01-30 00:20:00,
2013-01-29 16:25:00,57.9,38.8,30.22,SW,226,0.0,0.0,49,0.00,,,0.00,WUHU216WMR968SP,2013-01-30 00:25:00,
2013-01-29 16:30:00,57.7,38.6,30.22,SSW,213,0.0,0.0,49,0.00,,,0.00,WUHU216WMR968SP,2013-01-30 00:30:00,
2013-01-29 16:35:00,57.6,38.6,30.22,South,186,0.0,0.0,49,0.00,,,0.00,WUHU216WMR968SP,2013-01-30 00:35:00,
2013-01-29 16:40:00,57.4,38.4,30.22,SSE,164,0.0,0.0,49,0.00,,,0.00,WUHU216WMR968SP,2013-01-30 00:40:00,
2013-01-29 16:45:00,57.2,38.2,30.22,SSW,201,0.0,0.0,49,0.00,,,0.00,WUHU216WMR968SP,2013-01-30 00:45:00,
2013-01-29 16:50:00,56.8,38.4,30.22,ESE,113,0.0,0.0,50,0.00,,,0.00,WUHU216WMR968SP,2013-01-30 00:50:00,
2013-01-29 16:55:00,56.8,38.4,30.22,SSW,212,0.0,0.0,50,0.00,,,0.00,WUHU216WMR968SP,2013-01-30 00:55:00,
2013-01-29 17:00:00,56.7,38.3,30.22,ESE,120,0.0,0.0,50,0.00,,,0.00,WUHU216WMR968SP,2013-01-30 01:00:00,
2013-01-29 17:05:00,56.3,37.9,30.22,SSW,200,0.0,0.0,50,0.00,,,0.00,WUHU216WMR968SP,2013-01-30 01:05:00,
2013-01-29 17:10:00,56.1,37.7,30.22,South,186,0.0,0.0,50,0.00,,,0.00,WUHU216WMR968SP,2013-01-30 01:10:00,
2013-01-29 17:15:00,55.8,37.4,30.22,SSW,197,0.0,0.0,50,0.00,,,0.00,WUHU216WMR968SP,2013-01-30 01:15:00,
2013-01-29 17:20:00,55.6,38.3,30.22,SW,236,0.0,0.0,52,0.00,,,0.00,WUHU216WMR968SP,2013-01-30 01:20:00,
2013-01-29 17:25:00,55.2,38.4,30.22,SW,214,0.0,0.0,53,0.00,,,0.00,WUHU216WMR968SP,2013-01-30 01:25:00,
2013-01-29 17:30:00,55.0,38.2,30.22,SW,222,0.0,0.0,53,0.00,,,0.00,WUHU216WMR968SP,2013-01-30 01:30:00,
2013-01-29 17:35:00,54.9,39.1,30.22,SW,222,0.0,0.0,55,0.00,,,0.00,WUHU216WMR968SP,2013-01-30 01:35:00,
2013-01-29 17:40:00,54.5,38.7,30.22,SW,222,0.0,0.0,55,0.00,,,0.00,WUHU216WMR968SP,2013-01-30 01:40:00,
2013-01-29 17:45:00,54.3,38.5,30.22,SW,222,0.0,0.0,55,0.00,,,0.00,WUHU216WMR968SP,2013-01-30 01:45:00,
2013-01-29 17:50:00,54.0,38.7,30.25,SW,222,0.0,0.0,56,0.00,,,0.00,WUHU216WMR968SP,2013-01-30 01:50:00,
2013-01-29 17:55:00,53.4,38.2,30.25,SW,222,0.0,0.0,56,0.00,,,0.00,WUHU216WMR968SP,2013-01-30 01:55:00,
2013-01-29 18:00:00,53.1,37.9,30.25,SW,222,0.0,0.0,56,0.00,,,0.00,WUHU216WMR968SP,2013-01-30 02:00:00,
2013-01-29 18:05:00,52.7,37.5,30.25,SW,222,0.0,0.0,56,0.00,,,0.00,WUHU216WMR968SP,2013-01-30 02:05:00,
2013-01-29 18:10:00,52.3,37.6,30.25,SW,222,0.0,0.0,57,0.00,,,0.00,WUHU216WMR968SP,2013-01-30 02:10:00,
2013-01-29 18:15:00,52.0,37.3,30.25,SW,222,0.0,0.0,57,0.00,,,0.00,WUHU216WMR968SP,2013-01-30 02:15:00,
2013-01-29 18:20:00,51.6,36.9,30.25,SW,222,0.0,0.0,57,0.00,,,0.00,WUHU216WMR968SP,2013-01-30 02:20:00,
2013-01-29 18:25:00,51.4,37.6,30.25,SW,222,0.0,0.0,59,0.00,,,0.00,WUHU216WMR968SP,2013-01-30 02:25:00,
2013-01-29 18:30:00,51.4,38.9,30.25,SW,222,0.0,0.0,62,0.00,,,0.00,WUHU216WMR968SP,2013-01-30 02:30:00,
2013-01-29 18:35:00,51.6,40.3,30.25,SW,222,0.0,0.0,65,0.00,,,0.00,WUHU216WMR968SP,2013-01-30 02:35:00,
2013-01-29 18:40:00,51.3,40.8,30.25,SW,222,0.0,0.0,67,0.00,,,0.00,WUHU216WMR968SP,2013-01-30 02:40:00,
2013-01-29 18:45:00,51.1,40.6,30.25,SW,222,0.0,0.0,67,0.00,,,0.00,WUHU216WMR968SP,2013-01-30 02:45:00,
2013-01-29 18:50:00,51.3,41.6,30.25,SW,222,0.0,0.0,69,0.00,,,0.00,WUHU216WMR968SP,2013-01-30 02:50:00,
2013-01-29 18:55:00,51.1,41.8,30.25,SW,222,0.0,0.0,70,0.00,,,0.00,WUHU216WMR968SP,2013-01-30 02:55:00,
2013-01-29 19:00:00,50.7,40.6,30.25,SW,222,0.0,0.0,68,0.00,,,0.00,WUHU216WMR968SP,2013-01-30 03:00:00,
2013-01-29 19:05:00,50.5,40.4,30.25,SW,222,0.0,0.0,68,0.00,,,0.00,WUHU216WMR968SP,2013-01-30 03:05:00,
2013-01-29 19:10:00,50.2,39.8,30.25,SW,222,0.0,0.0,67,0.00,,,0.00,WUHU216WMR968SP,2013-01-30 03:10:00,
2013-01-29 19:15:00,50.0,39.2,30.25,SW,222,0.0,0.0,66,0.00,,,0.00,WUHU216WMR968SP,2013-01-30 03:15:00,
2013-01-29 19:20:00,50.2,39.8,30.28,SW,222,0.0,0.0,67,0.00,,,0.00,WUHU216WMR968SP,2013-01-30 03:20:00,
2013-01-29 19:25:00,50.2,39.4,30.28,SW,222,0.0,0.0,66,0.00,,,0.00,WUHU216WMR968SP,2013-01-30 03:25:00,
2013-01-29 19:30:00,50.0,39.2,30.28,SW,222,0.0,0.0,66,0.00,,,0.00,WUHU216WMR968SP,2013-01-30 03:30:00,
2013-01-29 19:35:00,50.0,39.2,30.28,SW,222,0.0,0.0,66,0.00,,,0.00,WUHU216WMR968SP,2013-01-30 03:35:00,
2013-01-29 19:40:00,50.0,39.2,30.28,SW,222,0.0,0.0,66,0.00,,,0.00,WUHU216WMR968SP,2013-01-30 03:40:00,
2013-01-29 19:45:00,50.0,38.8,30.28,SW,222,0.0,0.0,65,0.00,,,0.00,WUHU216WMR968SP,2013-01-30 03:45:00,
2013-01-29 19:50:00,49.8,38.6,30.25,SW,222,0.0,0.0,65,0.00,,,0.00,WUHU216WMR968SP,2013-01-30 03:50:00,
2013-01-29 19:55:00,49.5,38.3,30.25,SW,222,0.0,0.0,65,0.00,,,0.00,WUHU216WMR968SP,2013-01-30 03:55:00,
2013-01-29 20:00:00,49.1,38.3,30.25,SW,222,0.0,0.0,66,0.00,,,0.00,WUHU216WMR968SP,2013-01-30 04:00:00,
2013-01-29 20:05:00,49.1,38.3,30.28,SW,222,0.0,0.0,66,0.00,,,0.00,WUHU216WMR968SP,2013-01-30 04:05:00,
2013-01-29 20:10:00,48.9,38.5,30.28,SW,222,0.0,0.0,67,0.00,,,0.00,WUHU216WMR968SP,2013-01-30 04:10:00,
2013-01-29 20:15:00,49.3,38.9,30.28,SW,222,0.0,0.0,67,0.00,,,0.00,WUHU216WMR968SP,2013-01-30 04:15:00,
2013-01-29 20:20:00,49.8,40.5,30.28,SW,222,0.0,0.0,70,0.00,,,0.00,WUHU216WMR968SP,2013-01-30 04:20:00,
2013-01-29 20:25:00,49.8,40.9,30.28,SW,222,0.0,0.0,71,0.00,,,0.00,WUHU216WMR968SP,2013-01-30 04:25:00,
2013-01-29 20:30:00,49.5,40.6,30.28,SW,222,0.0,0.0,71,0.00,,,0.00,WUHU216WMR968SP,2013-01-30 04:30:00,
2013-01-29 20:35:00,49.5,41.3,30.28,SW,222,0.0,0.0,73,0.00,,,0.00,WUHU216WMR968SP,2013-01-30 04:35:00,
2013-01-29 20:40:00,49.1,40.6,30.28,SW,222,0.0,0.0,72,0.00,,,0.00,WUHU216WMR968SP,2013-01-30 04:40:00,
2013-01-29 20:45:00,48.7,39.8,30.28,SW,222,0.0,0.0,71,0.00,,,0.00,WUHU216WMR968SP,2013-01-30 04:45:00,
2013-01-29 20:50:00,48.9,40.0,30.28,SW,222,0.0,0.0,71,0.00,,,0.00,WUHU216WMR968SP,2013-01-30 04:50:00,
2013-01-29 20:55:00,49.1,40.2,30.28,SW,222,0.0,0.0,71,0.00,,,0.00,WUHU216WMR968SP,2013-01-30 04:55:00,
2013-01-29 21:01:00,48.7,39.1,30.28,SW,222,0.0,0.0,69,0.00,,,0.00,WUHU216WMR968SP,2013-01-30 05:01:00,
2013-01-29 21:06:00,48.7,39.1,30.28,SW,222,0.0,0.0,69,0.00,,,0.00,WUHU216WMR968SP,2013-01-30 05:06:00,
2013-01-29 21:11:00,48.6,38.6,30.28,SW,222,0.0,0.0,68,0.00,,,0.00,WUHU216WMR968SP,2013-01-30 05:11:00,
2013-01-29 21:16:00,48.6,38.6,30.28,SW,222,0.0,0.0,68,0.00,,,0.00,WUHU216WMR968SP,2013-01-30 05:16:00,
2013-01-29 21:21:00,48.6,38.6,30.25,SW,222,0.0,0.0,68,0.00,,,0.00,WUHU216WMR968SP,2013-01-30 05:21:00,
2013-01-29 21:26:00,48.4,38.4,30.25,SW,222,0.0,0.0,68,0.00,,,0.00,WUHU216WMR968SP,2013-01-30 05:26:00,
2013-01-29 21:31:00,47.7,37.8,30.25,West,264,0.0,0.0,68,0.00,,,0.00,WUHU216WMR968SP,2013-01-30 05:31:00,
2013-01-29 21:36:00,47.3,37.4,30.28,West,264,0.0,0.0,68,0.00,,,0.00,WUHU216WMR968SP,2013-01-30 05:36:00,
2013-01-29 21:41:00,47.1,37.2,30.28,West,264,0.0,0.0,68,0.00,,,0.00,WUHU216WMR968SP,2013-01-30 05:41:00,
2013-01-29 21:46:00,47.3,37.4,30.28,North,3,0.0,0.0,68,0.00,,,0.00,WUHU216WMR968SP,2013-01-30 05:46:00,
2013-01-29 21:51:00,47.5,37.6,30.25,North,3,0.0,0.0,68,0.00,,,0.00,WUHU216WMR968SP,2013-01-30 05:51:00,
2013-01-29 21:56:00,47.7,37.8,30.25,NNE,23,3.6,4.0,68,0.00,,,0.00,WUHU216WMR968SP,2013-01-30 05:56:00,
2013-01-29 22:01:00,47.8,37.9,30.25,NNE,23,0.0,4.0,68,0.00,,,0.00,WUHU216WMR968SP,2013-01-30 06:01:00,
2013-01-29 22:06:00,48.0,38.0,30.25,NNE,22,0.0,4.0,68,0.00,,,0.00,WUHU216WMR968SP,2013-01-30 06:06:00,
2013-01-29 22:11:00,48.0,37.7,30.25,NNE,24,0.0,0.0,67,0.00,,,0.00,WUHU216WMR968SP,2013-01-30 06:11:00,
2013-01-29 22:16:00,48.2,37.9,30.25,NNE,24,0.0,0.0,67,0.00,,,0.00,WUHU216WMR968SP,2013-01-30 06:16:00,
2013-01-29 22:21:00,48.0,37.7,30.25,North,9,0.0,0.0,67,0.00,,,0.00,WUHU216WMR968SP,2013-01-30 06:21:00,
2013-01-29 22:26:00,47.7,37.4,30.25,North,9,0.0,0.0,67,0.00,,,0.00,WUHU216WMR968SP,2013-01-30 06:26:00,
2013-01-29 22:31:00,47.5,37.2,30.25,North,9,0.0,0.0,67,0.00,,,0.00,WUHU216WMR968SP,2013-01-30 06:31:00,
2013-01-29 22:36:00,47.5,37.2,30.28,North,9,0.0,0.0,67,0.00,,,0.00,WUHU216WMR968SP,2013-01-30 06:36:00,
2013-01-29 22:41:00,47.7,37.4,30.28,NNE,17,0.0,4.0,67,0.00,,,0.00,WUHU216WMR968SP,2013-01-30 06:41:00,
2013-01-29 22:46:00,48.0,37.7,30.28,NNE,17,0.0,4.0,67,0.00,,,0.00,WUHU216WMR968SP,2013-01-30 06:46:00,
2013-01-29 22:51:00,48.0,37.7,30.28,NNE,17,0.0,0.0,67,0.00,,,0.00,WUHU216WMR968SP,2013-01-30 06:51:00,
2013-01-29 22:56:00,48.0,37.7,30.28,NNE,17,0.0,0.0,67,0.00,,,0.00,WUHU216WMR968SP,2013-01-30 06:56:00,
2013-01-29 23:01:00,48.0,37.7,30.28,ENE,73,0.0,3.1,67,0.00,,,0.00,WUHU216WMR968SP,2013-01-30 07:01:00,
2013-01-29 23:06:00,47.8,37.5,30.28,ENE,71,0.0,3.1,67,0.00,,,0.00,WUHU216WMR968SP,2013-01-30 07:06:00,
2013-01-29 23:11:00,47.8,37.5,30.28,ENE,71,0.0,0.0,67,0.00,,,0.00,WUHU216WMR968SP,2013-01-30 07:11:00,
2013-01-29 23:16:00,47.7,37.4,30.28,ENE,71,0.0,0.0,67,0.00,,,0.00,WUHU216WMR968SP,2013-01-30 07:16:00,
2013-01-29 23:21:00,47.5,37.2,30.31,ENE,71,0.0,0.0,67,0.00,,,0.00,WUHU216WMR968SP,2013-01-30 07:21:00,
2013-01-29 23:26:00,47.3,37.0,30.31,ENE,71,0.0,0.0,67,0.00,,,0.00,WUHU216WMR968SP,2013-01-30 07:26:00,
2013-01-29 23:31:00,47.1,37.2,30.31,North,353,0.0,0.0,68,0.00,,,0.00,WUHU216WMR968SP,2013-01-30 07:31:00,
2013-01-29 23:36:00,46.9,37.0,30.31,North,7,0.0,2.7,68,0.00,,,0.00,WUHU216WMR968SP,2013-01-30 07:36:00,
2013-01-29 23:41:00,47.3,37.4,30.31,North,7,0.0,2.7,68,0.00,,,0.00,WUHU216WMR968SP,2013-01-30 07:41:00,
2013-01-29 23:46:00,47.5,37.6,30.31,North,0,0.0,2.2,68,0.00,,,0.00,WUHU216WMR968SP,2013-01-30 07:46:00,
2013-01-29 23:51:00,47.7,37.8,30.31,NNE,22,0.0,4.9,68,0.00,,,0.00,WUHU216WMR968SP,2013-01-30 07:51:00,
2013-01-29 23:56:00,47.8,37.5,30.31,NNE,19,3.1,4.9,67,0.00,,,0.00,WUHU216WMR968SP,2013-01-30 07:56:00,